Terminal Aerodrome Forecast
Issued by NWS

Home | Current Version | Previous Version | Graphics & Text | Print | Product List | Glossary Off
Versions: 1 2 3 4 5 6 7 8 9 10 11 12 13 14 15 16 17 18 19 20 21

000
FTUS43 KDDC 251251 AAA
TAFHYS
TAF AMD
KHYS 251251Z 2513/2612 09007KT P6SM BKN080
     FM251500 09008KT P6SM VCSH OVC070
     FM252100 08009KT P6SM VCTS OVC060CB
     FM260300 VRB04KT P6SM VCSH OVC060=

USA.gov is the U.S. government's official web portal to all federal, state and local government web resources and services.